Terminal Aerodrome Forecast
Issued by NWS Memphis, TN

Home | Current Version | Previous Version | Text Only | Print | Product List | Glossary On
Versions: 1 2 3 4 5 6 7 8 9 10 11 12 13 14 15 16 17 18 19 20 21 22 23 24 25 26 27 28 29 30 31
000
FTUS44 KMEG 310900 AAA
TAFMEM
TAF AMD
KMEM 310900Z 3109/0106 18010KT P6SM -SHRA OVC009
     FM311500 22010KT P6SM VCSH BKN015 BKN035
     FM311800 22012KT P6SM VCTS SCT025 BKN035CB
     FM010100 19007KT P6SM SCT150=

USA.gov is the U.S. government's official web portal to all federal, state and local government web resources and services.